Time;durP1;ratioP1;P1;durP2;ratioP2;P2;SDS_P1;SDS_P2;PMS_P1;PMS_P2;Temp;Humidity;BMP_temperature;BMP_pressure;BME280_temperature;BME280_humidity;BME280_pressure;Samples;Min_cycle;Max_cycle;Signal;HPM_P1;HPM_P2
2022/01/20 00:04:25;;;;;;;9.43;8.43;;;5.20;1.00;5.70;101036.00;;;;5077147;28;20889;-83
2022/01/20 00:07:27;;;;;;;9.90;8.90;;;5.40;1.00;5.80;101041.00;;;;5094009;28;20473;-84
2022/01/20 00:26:45;;;;;;;8.20;7.40;;;5.40;1.00;5.80;101042.00;;;;5099112;28;20464;-82
2022/01/20 00:29:22;;;;;;;8.03;7.23;;;5.30;1.00;5.70;67526.00;;;;5092741;28;20485;-84
2022/01/20 00:32:04;;;;;;;9.20;8.10;;;5.30;1.00;5.70;67518.00;;;;5090142;28;20458;-84
2022/01/20 00:35:04;;;;;;;9.30;8.17;;;5.20;1.00;5.80;101052.00;;;;5103829;28;20482;-83
2022/01/20 00:37:30;;;;;;;8.63;7.83;;;5.30;1.00;5.90;101060.00;;;;5078453;28;21006;-83
2022/01/20 00:40:00;;;;;;;9.20;8.20;;;5.40;1.00;5.90;100638.00;;;;5100723;28;20458;-83
2022/01/20 00:42:29;;;;;;;8.20;7.37;;;5.50;1.00;6.00;101059.00;;;;5075528;28;20470;-83
2022/01/20 00:44:57;;;;;;;10.00;7.17;;;5.60;1.00;6.00;101057.00;;;;5091848;28;20496;-85
2022/01/20 00:47:26;;;;;;;9.03;7.70;;;5.60;1.00;6.10;101073.00;;;;5093584;28;20470;-84
2022/01/20 00:49:54;;;;;;;8.93;8.03;;;5.60;1.00;6.10;101055.00;;;;5076307;28;20458;-84
2022/01/20 00:52:24;;;;;;;9.67;8.77;;;5.60;1.00;6.10;67612.00;;;;5060556;28;20481;-85
2022/01/20 00:54:53;;;;;;;8.53;7.63;;;5.60;1.00;6.20;67625.00;;;;5090357;28;20494;-85
2022/01/20 00:57:23;;;;;;;9.50;8.50;;;5.70;1.00;6.20;67631.00;;;;5066274;28;20474;-81
2022/01/20 00:59:51;;;;;;;8.47;7.00;;;5.80;1.00;6.30;67641.00;;;;5078402;28;20549;-83
2022/01/20 01:02:21;;;;;;;8.27;7.47;;;5.80;1.00;6.30;101087.00;;;;5071293;28;20485;-84
2022/01/20 01:04:50;;;;;;;8.57;7.67;;;5.90;1.00;6.40;101068.00;;;;5101587;28;20458;-83
2022/01/20 01:07:45;;;;;;;7.53;6.67;;;5.90;1.00;6.40;101071.00;;;;5103406;28;20454;-85
2022/01/20 01:10:19;;;;;;;8.17;7.37;;;5.90;1.00;6.40;101070.00;;;;5076229;28;20496;-83
2022/01/20 01:12:53;;;;;;;8.40;7.50;;;5.90;1.00;6.30;101057.00;;;;5065329;28;20471;-84
2022/01/20 01:15:27;;;;;;;9.77;8.77;;;5.90;1.00;6.30;101069.00;;;;5077716;28;20457;-85
2022/01/20 01:23:36;;;;;;;9.10;7.20;;;5.70;1.00;6.10;101081.00;;;;5079740;28;20482;-84
2022/01/20 01:26:08;;;;;;;9.17;7.10;;;5.70;1.00;6.00;101083.00;;;;5064387;28;20465;-84
2022/01/20 01:28:38;;;;;;;9.17;7.70;;;5.60;1.00;5.90;101059.00;;;;5095029;28;20463;-85
2022/01/20 01:34:00;;;;;;;9.37;8.47;;;5.50;1.00;5.90;67554.00;;;;5076739;28;20479;-85
2022/01/20 01:36:33;;;;;;;11.03;8.70;;;5.30;1.00;5.80;101061.00;;;;5093914;28;20482;-85
2022/01/20 01:39:02;;;;;;;10.20;9.20;;;5.30;1.00;5.70;101072.00;;;;5093967;28;20489;-84
2022/01/20 01:41:34;;;;;;;9.80;8.20;;;5.20;1.00;5.80;101067.00;;;;5077788;28;20475;-83
2022/01/20 01:44:08;;;;;;;10.20;8.67;;;5.20;1.00;5.80;101074.00;;;;5091940;28;20565;-83
2022/01/20 01:46:39;;;;;;;9.30;8.20;;;5.20;1.00;5.80;101093.00;;;;5071560;28;20465;-83
2022/01/20 01:49:08;;;;;;;11.07;8.73;;;5.30;1.00;5.80;101085.00;;;;5089152;28;20496;-82
2022/01/20 01:51:36;;;;;;;10.10;8.97;;;5.20;1.00;5.80;67533.00;;;;5099151;28;20491;-85
2022/01/20 01:54:05;;;;;;;10.07;8.43;;;5.20;1.00;5.80;101095.00;;;;5086606;28;20577;-83
2022/01/20 01:56:35;;;;;;;12.43;8.43;;;5.30;1.00;5.70;67524.00;;;;5084884;28;21002;-83
2022/01/20 01:59:08;;;;;;;10.13;8.03;;;5.20;1.00;5.70;67520.00;;;;5093272;28;20573;-83
2022/01/20 02:01:47;;;;;;;8.70;7.87;;;5.20;1.00;217.30;159123.00;;;;5073489;28;20457;-84
2022/01/20 02:04:19;;;;;;;9.10;8.10;;;5.20;1.00;5.80;101083.00;;;;5093390;28;20459;-83
2022/01/20 02:18:36;;;;;;;11.37;8.70;;;5.40;1.00;217.30;159197.00;;;;5104455;28;20477;-83
2022/01/20 02:21:09;;;;;;;11.70;8.60;;;5.30;1.00;5.80;67544.00;;;;5113478;28;20468;-83
2022/01/20 02:23:38;;;;;;;11.20;9.10;;;5.30;1.00;5.80;67524.00;;;;5095081;28;20454;-85
2022/01/20 02:26:07;;;;;;;11.30;7.70;;;5.20;1.00;5.80;101078.00;;;;5088950;28;21014;-83
2022/01/20 02:28:36;;;;;;;12.13;8.33;;;5.20;1.00;5.80;101060.00;;;;5097300;28;20485;-84
2022/01/20 02:31:05;;;;;;;11.57;8.33;;;5.20;1.00;5.80;101075.00;;;;5099302;28;20459;-83
2022/01/20 02:33:34;;;;;;;11.83;7.63;;;5.20;1.00;5.80;101087.00;;;;5077099;28;20512;-82
2022/01/20 02:36:08;;;;;;;12.43;8.10;;;5.30;1.00;5.80;101084.00;;;;5078366;28;20807;-81
2022/01/20 02:38:42;;;;;;;10.73;7.17;;;5.30;1.00;5.90;101086.00;;;;5079619;28;20450;-82
2022/01/20 02:46:43;;;;;;;9.67;7.57;;;5.50;1.00;6.00;101092.00;;;;5084627;28;20477;-82
2022/01/20 02:49:15;;;;;;;10.03;7.07;;;5.60;1.00;6.10;67601.00;;;;5098632;28;20470;-83
2022/01/20 02:51:52;;;;;;;13.63;8.63;;;5.70;1.00;6.20;67623.00;;;;5067510;28;20455;-82
2022/01/20 02:54:24;;;;;;;11.50;7.53;;;5.70;1.00;6.20;67614.00;;;;5088067;28;20494;-82
2022/01/20 02:56:55;;;;;;;11.30;7.40;;;5.70;1.00;217.30;159347.00;;;;5072299;28;20447;-83
2022/01/20 02:59:23;;;;;;;11.90;7.23;;;5.70;1.00;6.20;101091.00;;;;5036055;28;20488;-82
2022/01/20 03:01:52;;;;;;;13.83;8.47;;;5.70;1.00;6.10;101087.00;;;;5038344;28;20465;-82
2022/01/20 03:04:24;;;;;;;11.23;7.73;;;5.70;1.00;217.30;159290.00;;;;5033830;28;20461;-82
2022/01/20 03:06:53;;;;;;;13.20;7.73;;;5.60;1.00;6.00;101084.00;;;;5034014;28;20449;-82
2022/01/20 03:09:23;;;;;;;17.40;8.83;;;5.50;1.00;6.00;101083.00;;;;5035221;28;20470;-82
2022/01/20 03:11:52;;;;;;;14.03;8.17;;;5.40;1.00;5.90;101088.00;;;;5020789;28;20865;-82
2022/01/20 03:14:21;;;;;;;16.73;8.73;;;5.30;1.00;5.80;101100.00;;;;5018037;28;20797;-82
2022/01/20 03:16:50;;;;;;;10.70;7.87;;;5.40;1.00;5.60;101086.00;;;;5040360;28;20530;-82
2022/01/20 03:19:19;;;;;;;10.70;7.70;;;5.10;1.00;5.60;101099.00;;;;5032770;28;20452;-82
2022/01/20 03:21:47;;;;;;;11.73;8.20;;;5.10;1.00;5.60;101084.00;;;;5032958;28;20493;-82
2022/01/20 03:24:16;;;;;;;16.23;8.90;;;5.00;1.00;5.50;101094.00;;;;5017832;28;20460;-83
2022/01/20 03:26:45;;;;;;;15.13;9.27;;;5.00;1.00;5.50;101108.00;;;;5015662;28;20554;-83
2022/01/20 03:29:14;;;;;;;13.37;8.70;;;4.90;1.00;5.50;101116.00;;;;5020282;28;20470;-82
2022/01/20 03:31:43;;;;;;;18.70;10.20;;;4.90;1.00;5.40;101117.00;;;;5020593;28;20462;-81
2022/01/20 03:34:12;;;;;;;22.63;10.00;;;4.90;1.00;217.30;159044.00;;;;5023069;28;21492;-82
2022/01/20 03:36:46;;;;;;;18.27;9.17;;;5.10;1.00;5.50;101109.00;;;;5020371;28;20456;-81
2022/01/20 03:39:24;;;;;;;16.73;8.80;;;4.90;1.00;5.60;101105.00;;;;5040473;28;20464;-81
2022/01/20 03:41:54;;;;;;;13.13;8.87;;;5.00;1.00;5.50;101093.00;;;;5031413;28;20461;-83
2022/01/20 03:44:26;;;;;;;16.90;9.20;;;4.90;1.00;5.50;101079.00;;;;5027367;28;20462;-82
2022/01/20 03:46:56;;;;;;;14.50;7.90;;;4.90;1.00;5.50;101079.00;;;;5046766;28;20481;-82
2022/01/20 03:49:34;;;;;;;13.23;8.40;;;4.90;1.00;5.50;101085.00;;;;5043779;28;21919;-81
2022/01/20 03:52:04;;;;;;;12.70;8.00;;;4.90;1.00;5.50;101074.00;;;;5039612;28;20449;-81
2022/01/20 03:54:34;;;;;;;17.30;8.27;;;4.90;1.00;5.50;67461.00;;;;5017344;28;20872;-82
2022/01/20 03:57:23;;;;;;;15.40;8.37;;;4.90;1.00;5.50;101084.00;;;;5018493;28;20454;-82
2022/01/20 03:59:57;;;;;;;17.33;8.80;;;4.90;1.00;5.50;101092.00;;;;5018707;28;20460;-82
2022/01/20 04:02:44;;;;;;;13.67;7.20;;;5.10;1.00;5.50;101118.00;;;;5020030;28;20542;-83
2022/01/20 04:05:38;;;;;;;13.23;7.70;;;4.90;1.00;5.40;101105.00;;;;5023210;28;20486;-82
2022/01/20 04:08:20;;;;;;;12.80;7.70;;;4.80;1.00;5.40;101083.00;;;;5045833;28;20458;-83
2022/01/20 04:10:48;;;;;;;15.90;8.10;;;4.80;1.00;217.30;158996.00;;;;5038350;28;20484;-84
2022/01/20 04:13:19;;;;;;;16.90;7.00;;;4.80;1.00;5.40;101096.00;;;;5055451;28;20536;-83
2022/01/20 04:15:48;;;;;;;13.90;7.03;;;4.80;1.00;5.30;101095.00;;;;5025089;28;20456;-83
2022/01/20 04:18:25;;;;;;;19.93;8.43;;;4.80;1.00;5.30;101095.00;;;;5035369;28;20461;-82
2022/01/20 04:20:54;;;;;;;16.17;8.87;;;4.80;1.00;5.30;101102.00;;;;5022698;28;20465;-83
2022/01/20 04:23:22;;;;;;;16.53;8.33;;;4.80;1.00;217.30;158982.00;;;;5047337;28;20523;-82
2022/01/20 04:25:51;;;;;;;22.40;9.97;;;4.80;1.00;5.40;101081.00;;;;5022873;28;20544;-82
2022/01/20 04:28:20;;;;;;;17.03;8.23;;;4.80;1.00;5.40;101079.00;;;;5032077;28;20956;-83
2022/01/20 04:30:49;;;;;;;14.33;6.73;;;4.80;1.00;5.40;67457.00;;;;5048650;28;20468;-82
2022/01/20 04:33:17;;;;;;;17.53;8.00;;;4.90;1.00;5.40;67461.00;;;;5050862;28;20500;-82
2022/01/20 04:35:45;;;;;;;22.60;8.03;;;4.90;1.00;5.40;101075.00;;;;5039437;28;20541;-82
2022/01/20 04:38:14;;;;;;;20.17;10.60;;;4.90;1.00;5.40;67461.00;;;;5026315;28;20465;-83
2022/01/20 04:40:43;;;;;;;16.20;7.83;;;4.90;1.00;5.40;101053.00;;;;5044771;28;20896;-82
2022/01/20 04:43:12;;;;;;;18.80;9.10;;;4.90;1.00;5.40;101055.00;;;;5039866;28;20543;-81
2022/01/20 04:45:47;;;;;;;20.13;8.47;;;5.10;1.00;5.40;101047.00;;;;5033895;28;20474;-82
2022/01/20 04:48:23;;;;;;;16.10;8.00;;;4.90;1.00;5.50;67469.00;;;;5051749;28;20476;-82
2022/01/20 04:59:16;;;;;;;18.23;8.27;;;5.00;1.00;5.60;67509.00;;;;5060078;28;20511;-81
2022/01/20 05:01:47;;;;;;;22.73;8.43;;;5.10;1.00;5.80;101046.00;;;;5032401;28;20464;-81
2022/01/20 05:04:21;;;;;;;20.47;8.13;;;5.30;1.00;5.90;101041.00;;;;5043848;28;20502;-82
2022/01/20 05:07:04;;;;;;;12.17;7.87;;;5.50;1.00;6.00;101050.00;;;;5037145;28;20460;-82
2022/01/20 05:09:32;;;;;;;16.10;8.00;;;5.50;1.00;6.00;101049.00;;;;5022955;28;20707;-82
2022/01/20 05:12:05;;;;;;;25.80;7.57;;;5.60;1.00;6.10;101046.00;;;;5040788;28;20460;-81
2022/01/20 05:14:35;;;;;;;27.43;8.23;;;5.70;1.00;6.20;101053.00;;;;5049775;28;20447;-82
2022/01/20 05:17:07;;;;;;;18.13;7.40;;;5.90;1.00;6.20;101040.00;;;;5043040;28;20474;-82
2022/01/20 05:19:37;;;;;;;17.93;7.60;;;5.80;1.00;6.20;101039.00;;;;5056332;28;20467;-81
2022/01/20 05:22:06;;;;;;;19.40;8.20;;;5.70;1.00;6.10;101058.00;;;;5054822;28;20490;-81
2022/01/20 05:24:42;;;;;;;16.50;8.17;;;5.70;1.00;6.10;101039.00;;;;5034422;28;20492;-81
2022/01/20 05:27:10;;;;;;;16.17;7.30;;;5.70;1.00;6.10;101080.00;;;;5036966;28;20661;-82
2022/01/20 05:29:38;;;;;;;18.80;7.50;;;5.60;1.00;6.10;101081.00;;;;5049801;28;20992;-82
2022/01/20 05:32:09;;;;;;;18.20;7.37;;;5.70;1.00;6.10;101082.00;;;;5059565;28;20507;-81
2022/01/20 05:34:38;;;;;;;14.00;6.43;;;5.70;1.00;6.10;101083.00;;;;5058613;28;20445;-82
2022/01/20 05:37:06;;;;;;;23.70;8.10;;;5.70;1.00;6.10;100954.00;;;;5035281;28;20891;-82
2022/01/20 05:39:35;;;;;;;19.50;8.30;;;5.70;1.00;6.10;101091.00;;;;5044574;28;20581;-82
2022/01/20 05:42:04;;;;;;;14.60;6.70;;;5.60;1.00;6.00;101058.00;;;;5024097;28;20494;-81
2022/01/20 05:44:55;;;;;;;18.00;7.30;;;5.70;1.00;6.00;67600.00;;;;5020099;28;20461;-82
2022/01/20 05:47:29;;;;;;;15.53;5.53;;;5.60;1.00;6.10;101102.00;;;;5019928;28;21358;-82
2022/01/20 05:50:10;;;;;;;18.67;6.73;;;5.70;1.00;6.10;101079.00;;;;5029601;28;20540;-82
2022/01/20 05:52:41;;;;;;;16.00;5.90;;;5.70;1.00;6.10;101082.00;;;;5043348;28;21167;-82
2022/01/20 05:55:14;;;;;;;19.43;6.63;;;5.70;1.00;6.10;101056.00;;;;5032747;28;20485;-82
2022/01/20 05:57:45;;;;;;;16.10;4.73;;;5.60;1.00;6.00;101071.00;;;;5021239;28;20488;-81
2022/01/20 06:00:20;;;;;;;15.00;5.03;;;5.60;1.00;5.90;101100.00;;;;5019145;28;20452;-82
2022/01/20 06:05:42;;;;;;;12.07;4.20;;;5.40;1.00;5.80;67560.00;;;;5035247;28;20482;-82
2022/01/20 06:08:14;;;;;;;16.83;5.33;;;5.40;1.00;5.90;101084.00;;;;5018591;28;20894;-83
2022/01/20 06:10:42;;;;;;;15.80;4.77;;;5.60;1.00;6.00;67578.00;;;;5024801;28;20480;-83
2022/01/20 06:13:31;;;;;;;16.20;5.50;;;5.50;1.00;217.30;159258.00;;;;5023993;28;20482;-83
2022/01/20 06:16:01;;;;;;;23.53;7.20;;;5.80;1.00;52.70;159236.00;;;;5029028;28;20448;-82
2022/01/20 06:18:32;;;;;;;21.47;7.47;;;5.60;1.00;5.90;101061.00;;;;5031644;28;20453;-81
2022/01/20 06:21:02;;;;;;;14.03;6.20;;;5.50;1.00;5.90;101071.00;;;;5053342;28;20484;-81
2022/01/20 06:23:30;;;;;;;18.43;6.57;;;5.40;1.00;5.80;101048.00;;;;5040287;28;20580;-82
2022/01/20 06:26:04;;;;;;;17.80;8.27;;;5.40;1.00;5.80;100805.00;;;;5032353;28;20453;-81
2022/01/20 06:28:35;;;;;;;18.13;6.30;;;5.50;1.00;52.70;159107.00;;;;5046615;28;20457;-82
2022/01/20 06:31:06;;;;;;;25.10;8.93;;;5.30;1.00;5.70;101050.00;;;;5035055;28;20524;-82
2022/01/20 06:33:36;;;;;;;25.47;6.87;;;5.20;1.00;5.70;101057.00;;;;5038597;28;20484;-82
2022/01/20 06:36:06;;;;;;;18.57;6.60;;;5.20;1.00;5.60;101064.00;;;;5030047;28;20488;-82
2022/01/20 06:38:35;;;;;;;18.33;5.80;;;5.20;1.00;5.70;101053.00;;;;5024731;28;20492;-82
2022/01/20 06:41:03;;;;;;;19.20;6.60;;;5.20;1.00;5.70;67509.00;;;;5044656;28;20460;-83
2022/01/20 06:43:35;;;;;;;19.50;6.67;;;5.20;1.00;5.70;101065.00;;;;5020034;28;20480;-82
2022/01/20 06:46:05;;;;;;;17.87;6.70;;;5.20;1.00;5.70;101068.00;;;;5034785;28;20520;-81
2022/01/20 06:49:01;;;;;;;18.50;7.30;;;5.30;1.00;5.70;101052.00;;;;5019248;28;20864;-81
2022/01/20 06:51:35;;;;;;;20.13;6.50;;;5.40;1.00;5.70;101068.00;;;;5018700;28;20526;-82
2022/01/20 06:54:04;;;;;;;14.77;5.60;;;5.20;1.00;5.70;101063.00;;;;5020398;28;21699;-82
2022/01/20 06:56:35;;;;;;;17.60;6.00;;;5.20;1.00;5.70;101088.00;;;;5034092;28;20453;-81
2022/01/20 06:59:13;;;;;;;13.07;5.60;;;5.30;1.00;5.70;100896.00;;;;5039429;28;20457;-82
2022/01/20 07:01:45;;;;;;;14.10;5.30;;;5.20;1.00;5.70;101083.00;;;;5035457;28;20496;-82
2022/01/20 07:04:21;;;;;;;19.40;5.93;;;5.20;1.00;5.70;101088.00;;;;5020362;28;20445;-82
2022/01/20 07:06:50;;;;;;;21.20;6.23;;;5.20;1.00;5.70;101095.00;;;;5025327;28;20469;-82
2022/01/20 07:09:38;;;;;;;21.63;5.40;;;5.20;1.00;5.80;101083.00;;;;5018919;28;20548;-82
2022/01/20 07:12:16;;;;;;;14.30;5.30;;;5.30;1.00;5.80;101090.00;;;;5040149;28;20476;-81
2022/01/20 07:14:45;;;;;;;17.00;5.50;;;5.40;1.00;5.80;101083.00;;;;5018717;28;20475;-82
2022/01/20 07:17:14;;;;;;;17.03;5.40;;;5.60;1.00;5.80;101101.00;;;;5023155;28;20467;-81
2022/01/20 07:19:48;;;;;;;17.10;5.77;;;5.40;1.00;5.80;101116.00;;;;5039576;28;20457;-82
2022/01/20 07:22:18;;;;;;;20.57;6.20;;;5.40;1.00;5.80;101136.00;;;;5039443;28;20820;-81
2022/01/20 07:24:50;;;;;;;10.07;4.67;;;5.40;1.00;5.80;101136.00;;;;5020001;28;20461;-81
2022/01/20 07:27:27;;;;;;;14.73;4.80;;;5.40;1.00;5.80;101119.00;;;;5032391;28;20468;-81
2022/01/20 07:29:57;;;;;;;17.30;5.40;;;5.30;1.00;5.70;101123.00;;;;5034937;28;20449;-82
2022/01/20 07:32:25;;;;;;;15.07;5.37;;;5.40;1.00;5.70;101120.00;;;;5021550;28;20503;-83
2022/01/20 07:34:55;;;;;;;14.37;5.20;;;5.20;1.00;5.70;101133.00;;;;5036413;28;20950;-84
2022/01/20 07:37:23;;;;;;;14.83;4.73;;;5.20;1.00;5.70;67509.00;;;;5025058;28;20456;-84
2022/01/20 07:39:53;;;;;;;20.53;5.77;;;5.40;1.00;5.70;101126.00;;;;5036027;28;20468;-83
2022/01/20 07:42:21;;;;;;;17.37;5.53;;;5.20;1.00;5.70;67509.00;;;;5041529;28;20477;-84
2022/01/20 07:45:11;;;;;;;12.60;5.13;;;5.30;1.00;5.70;67518.00;;;;5020035;28;20463;-84
2022/01/20 07:47:53;;;;;;;16.40;4.77;;;5.40;1.00;5.80;67531.00;;;;5052216;28;20453;-84
2022/01/20 07:50:22;;;;;;;14.93;4.40;;;5.30;1.00;5.80;101128.00;;;;5022992;28;20528;-83
2022/01/20 07:52:51;;;;;;;17.63;4.73;;;5.40;1.00;5.90;101153.00;;;;5051500;28;20527;-84
2022/01/20 07:55:19;;;;;;;15.13;5.50;;;5.40;1.00;5.90;67568.00;;;;5052907;28;20461;-84
2022/01/20 07:57:48;;;;;;;12.90;4.63;;;5.40;1.00;5.90;101157.00;;;;5027981;28;20467;-82
2022/01/20 08:00:17;;;;;;;13.40;4.37;;;5.50;1.00;5.80;101147.00;;;;5039200;28;20453;-83
2022/01/20 08:02:46;;;;;;;13.50;4.67;;;5.40;1.00;5.80;101156.00;;;;5028902;28;20588;-82
2022/01/20 08:05:32;;;;;;;17.07;4.60;;;5.40;1.00;5.80;101159.00;;;;5024433;28;20461;-83
2022/01/20 08:08:00;;;;;;;8.30;4.20;;;5.40;1.00;5.80;101164.00;;;;5023216;28;20445;-83
2022/01/20 08:10:30;;;;;;;18.73;4.37;;;5.60;1.00;5.80;101178.00;;;;5041281;28;21104;-82
2022/01/20 08:12:59;;;;;;;11.93;3.50;;;5.70;1.00;5.90;101164.00;;;;5035118;28;20512;-84
2022/01/20 08:15:29;;;;;;;8.33;4.13;;;5.40;1.00;5.80;101174.00;;;;5020481;28;20465;-83
2022/01/20 08:18:06;;;;;;;12.03;3.63;;;5.40;1.00;5.80;101186.00;;;;5019899;28;20548;-83
2022/01/20 08:20:37;;;;;;;8.57;3.30;;;5.60;1.00;5.80;67531.00;;;;5023430;28;20472;-82
2022/01/20 08:23:09;;;;;;;11.63;4.57;;;5.40;1.00;5.70;101192.00;;;;5027428;28;20489;-83
2022/01/20 08:25:38;;;;;;;5.93;3.20;;;5.30;1.00;5.60;101200.00;;;;5052966;28;20560;-82
2022/01/20 08:28:07;;;;;;;7.50;2.93;;;5.50;1.00;5.50;101214.00;;;;5030528;28;20912;-82
2022/01/20 08:30:41;;;;;;;7.13;2.10;;;5.10;1.00;5.40;101223.00;;;;5047106;28;20487;-82
2022/01/20 08:33:09;;;;;;;3.90;2.07;;;5.00;1.00;5.40;101220.00;;;;5024694;28;20489;-82
2022/01/20 08:36:08;;;;;;;7.57;2.63;;;5.00;1.00;5.50;101211.00;;;;5013493;28;20464;-81
2022/01/20 08:38:52;;;;;;;5.60;2.67;;;5.10;1.00;5.70;67520.00;;;;5030687;28;20448;-82
2022/01/20 08:41:21;;;;;;;11.43;3.10;;;5.20;1.00;5.90;101203.00;;;;5046661;28;20469;-81
2022/01/20 08:43:50;;;;;;;8.50;3.13;;;5.40;1.00;6.20;67637.00;;;;5025968;28;20473;-81
2022/01/20 08:46:21;;;;;;;6.50;2.83;;;5.70;1.00;6.50;101215.00;;;;5025205;28;20473;-81
2022/01/20 08:48:50;;;;;;;11.00;2.60;;;6.00;1.00;6.50;101216.00;;;;5040246;28;20540;-81
2022/01/20 08:51:23;;;;;;;5.90;3.30;;;6.30;1.00;6.40;67668.00;;;;5032640;28;20450;-82
2022/01/20 08:53:58;;;;;;;7.00;2.40;;;6.00;1.00;6.30;101230.00;;;;5043218;28;20538;-81
2022/01/20 08:56:30;;;;;;;9.37;3.60;;;5.90;1.00;6.10;101210.00;;;;5037986;28;20457;-82
2022/01/20 08:58:58;;;;;;;6.77;3.43;;;5.80;1.00;6.00;101228.00;;;;5038774;28;20526;-81
2022/01/20 09:01:27;;;;;;;9.63;3.57;;;5.60;1.00;6.00;101251.00;;;;5059959;28;20464;-83
2022/01/20 09:03:56;;;;;;;5.80;2.57;;;5.60;1.00;6.00;101255.00;;;;5036713;28;21158;-84
2022/01/20 09:06:26;;;;;;;12.23;3.13;;;5.90;1.00;6.10;67612.00;;;;5033339;28;20552;-81
2022/01/20 09:09:05;;;;;;;5.83;2.37;;;5.70;1.00;6.20;101263.00;;;;5051255;28;20457;-81
2022/01/20 09:11:37;;;;;;;6.70;2.27;;;5.80;1.00;6.20;101261.00;;;;5048805;28;20540;-83
2022/01/20 09:16:57;;;;;;;10.57;2.70;;;5.80;1.00;6.20;101274.00;;;;5052241;28;20453;-82
2022/01/20 09:19:27;;;;;;;6.63;2.50;;;5.80;1.00;6.10;101265.00;;;;5045142;28;20969;-82
2022/01/20 09:22:08;;;;;;;4.83;2.93;;;6.00;1.00;6.00;101288.00;;;;5049413;28;20483;-84
2022/01/20 09:24:36;;;;;;;2.83;1.60;;;5.70;1.00;5.90;67573.00;;;;5045663;28;20444;-82
2022/01/20 09:27:07;;;;;;;4.17;2.23;;;5.50;1.00;5.90;101276.00;;;;5052153;28;20465;-82
2022/01/20 09:29:36;;;;;;;6.10;2.80;;;5.50;1.00;6.10;101285.00;;;;5067188;28;20462;-83
2022/01/20 09:32:10;;;;;;;5.80;2.50;;;5.60;1.00;6.00;67595.00;;;;5041943;28;20484;-82
2022/01/20 09:34:38;;;;;;;4.63;1.83;;;5.60;1.00;6.10;101265.00;;;;5035385;28;20499;-82
2022/01/20 09:37:09;;;;;;;3.30;1.70;;;5.60;1.00;6.20;67626.00;;;;5025902;28;20485;-82
2022/01/20 09:39:43;;;;;;;3.90;1.90;;;5.90;1.00;6.30;101303.00;;;;5034300;28;20567;-81
2022/01/20 09:42:35;;;;;;;4.17;1.80;;;5.80;1.00;6.20;101311.00;;;;5045611;28;20485;-83
2022/01/20 09:45:04;;;;;;;4.20;1.93;;;5.80;1.00;52.70;159322.00;;;;5047950;28;20520;-84
2022/01/20 09:47:32;;;;;;;6.60;1.80;;;5.70;1.00;6.10;101325.00;;;;5060755;28;20468;-84
2022/01/20 09:50:21;;;;;;;3.80;1.80;;;5.70;1.00;217.30;159325.00;;;;5046457;28;20477;-84
2022/01/20 09:53:11;;;;;;;4.80;1.60;;;5.70;1.00;6.20;101310.00;;;;5034226;28;20535;-82
2022/01/20 09:55:53;;;;;;;2.70;1.70;;;5.80;1.00;6.60;67720.00;;;;5036532;28;20477;-82
2022/01/20 09:58:21;;;;;;;4.13;2.40;;;6.20;1.00;6.80;67769.00;;;;5022802;28;20453;-84
2022/01/20 10:00:51;;;;;;;5.30;2.23;;;6.50;1.00;217.30;159667.00;;;;5022300;28;20468;-83
2022/01/20 10:03:20;;;;;;;4.10;2.30;;;6.50;1.00;7.20;101327.00;;;;5038459;28;20507;-83
2022/01/20 10:05:53;;;;;;;6.13;2.10;;;6.70;1.00;7.20;101314.00;;;;5023705;28;21057;-81
2022/01/20 10:08:27;;;;;;;5.47;2.13;;;6.80;1.00;7.10;101323.00;;;;5037446;28;20879;-82
2022/01/20 10:11:10;;;;;;;4.77;1.93;;;6.80;1.00;7.10;67831.00;;;;5045478;28;20460;-82
2022/01/20 10:14:08;;;;;;;3.23;1.50;;;6.80;1.00;6.90;101325.00;;;;5026478;28;21139;-84
2022/01/20 10:16:55;;;;;;;6.10;1.50;;;6.60;1.00;7.00;101337.00;;;;5036394;28;20460;-82
2022/01/20 10:19:29;;;;;;;9.33;1.90;;;6.60;1.00;6.90;101348.00;;;;5042409;28;20542;-83
2022/01/20 10:22:23;;;;;;;5.33;3.57;;;6.60;1.00;6.70;67746.00;;;;5035743;28;20539;-83
2022/01/20 10:25:17;;;;;;;3.83;1.40;;;6.40;1.00;6.80;101359.00;;;;5043517;28;20517;-84
2022/01/20 10:28:14;;;;;;;5.63;1.83;;;6.40;1.00;7.00;101327.00;;;;5006857;28;20463;-84
2022/01/20 10:30:45;;;;;;;7.57;1.50;;;6.50;1.00;6.90;67794.00;;;;5065982;28;20460;-83
2022/01/20 10:33:13;;;;;;;8.67;2.20;;;6.50;1.00;7.10;101320.00;;;;5065704;28;20488;-82
2022/01/20 10:35:45;;;;;;;5.53;1.93;;;6.60;1.00;7.20;67853.00;;;;5050200;28;20453;-84
2022/01/20 10:38:54;;;;;;;4.13;1.80;;;6.80;1.00;7.30;67888.00;;;;5039954;28;20465;-84
2022/01/20 10:41:32;;;;;;;5.90;1.73;;;6.80;1.00;7.30;67885.00;;;;5035498;28;20466;-83
2022/01/20 10:44:05;;;;;;;5.60;2.07;;;6.90;1.00;7.30;101328.00;;;;5034455;28;20485;-81
2022/01/20 10:46:45;;;;;;;3.63;1.50;;;6.90;1.00;7.30;101340.00;;;;5020290;28;20448;-81
2022/01/20 10:49:18;;;;;;;6.37;2.23;;;6.80;1.00;7.20;101336.00;;;;5042591;28;20452;-82
2022/01/20 10:52:01;;;;;;;7.03;2.20;;;6.80;1.00;7.30;67881.00;;;;5020149;28;20461;-82
2022/01/20 10:54:42;;;;;;;9.13;2.30;;;6.90;1.00;7.40;101326.00;;;;5025748;28;20500;-82
2022/01/20 10:57:16;;;;;;;9.07;1.97;;;7.00;1.00;7.40;101341.00;;;;5032807;28;20499;-81
2022/01/20 10:59:53;;;;;;;5.60;2.50;;;7.00;1.00;7.40;101331.00;;;;5030981;28;20851;-82
2022/01/20 11:02:31;;;;;;;8.27;2.00;;;6.90;1.00;7.30;101312.00;;;;5044047;28;20481;-82
2022/01/20 11:05:00;;;;;;;5.93;1.83;;;6.80;1.00;217.30;159851.00;;;;5022266;28;20453;-81
2022/01/20 11:07:30;;;;;;;8.70;1.83;;;6.80;1.00;7.60;101326.00;;;;5019809;28;20458;-83
2022/01/20 11:10:02;;;;;;;8.43;2.40;;;7.00;1.00;7.50;101327.00;;;;5020061;28;20484;-83
2022/01/20 11:12:34;;;;;;;4.80;2.03;;;7.10;1.00;7.50;101318.00;;;;5018755;28;20542;-82
2022/01/20 11:15:14;;;;;;;3.90;1.13;;;7.00;1.00;7.40;101302.00;;;;5021065;28;20479;-82
2022/01/20 11:17:44;;;;;;;8.40;1.77;;;7.00;1.00;7.60;101320.00;;;;5035928;28;21497;-82
2022/01/20 11:20:16;;;;;;;7.13;1.80;;;7.10;1.00;7.80;101324.00;;;;5023965;28;20465;-82
2022/01/20 11:22:57;;;;;;;7.90;2.23;;;7.30;1.00;7.60;101337.00;;;;5040167;28;20487;-83
2022/01/20 11:25:34;;;;;;;4.87;1.80;;;7.40;1.00;7.20;101329.00;;;;5017794;28;20449;-83
2022/01/20 11:28:30;;;;;;;5.97;1.97;;;7.00;1.00;7.40;67891.00;;;;5011223;28;20553;-83
2022/01/20 11:31:34;;;;;;;7.60;1.97;;;7.00;1.00;7.70;101336.00;;;;5016815;28;20454;-82
2022/01/20 11:34:23;;;;;;;5.27;1.90;;;7.30;1.00;7.90;101327.00;;;;5046146;28;20575;-81
2022/01/20 11:36:51;;;;;;;5.43;1.50;;;7.50;1.00;8.10;101330.00;;;;5020794;28;20461;-82
2022/01/20 11:39:39;;;;;;;5.00;2.57;;;7.70;1.00;8.10;68042.00;;;;5025329;28;20457;-81
2022/01/20 11:42:22;;;;;;;4.90;2.10;;;7.60;1.00;8.10;101327.00;;;;5026128;28;20512;-81
2022/01/20 11:44:53;;;;;;;6.53;1.97;;;7.70;1.00;8.10;101309.00;;;;5032419;28;20471;-81
2022/01/20 11:47:32;;;;;;;5.93;2.17;;;7.70;1.00;7.80;67994.00;;;;5027184;28;20452;-81
2022/01/20 11:50:01;;;;;;;6.30;1.80;;;7.50;1.00;8.00;101324.00;;;;5041038;28;20480;-81
2022/01/20 11:52:29;;;;;;;6.23;1.30;;;7.70;1.00;8.10;101321.00;;;;5031244;28;20472;-80
2022/01/20 11:55:19;;;;;;;4.20;1.43;;;7.80;1.00;8.30;101343.00;;;;5028155;28;21063;-81
2022/01/20 11:57:48;;;;;;;6.00;1.80;;;8.00;1.00;8.00;101327.00;;;;5035563;28;20562;-81
2022/01/20 12:00:28;;;;;;;8.30;2.03;;;7.50;1.00;8.60;101321.00;;;;5033306;28;20560;-81
2022/01/20 12:02:56;;;;;;;10.07;2.70;;;8.20;1.00;8.50;101325.00;;;;5016068;28;20485;-81
2022/01/20 12:05:37;;;;;;;4.23;1.50;;;8.10;1.00;217.30;160323.00;;;;5025120;28;21495;-81
2022/01/20 12:08:19;;;;;;;7.30;2.93;;;8.10;1.00;8.20;101322.00;;;;5017556;28;20775;-81
2022/01/20 12:11:00;;;;;;;9.47;1.80;;;7.80;1.00;7.90;101352.00;;;;5027600;28;21167;-82
2022/01/20 12:13:30;;;;;;;4.83;2.23;;;7.50;1.00;7.30;101326.00;;;;5021790;28;20481;-81
2022/01/20 12:16:02;;;;;;;6.27;1.80;;;7.00;1.00;7.00;101334.00;;;;5031951;28;20897;-82
2022/01/20 12:18:32;;;;;;;4.67;1.80;;;6.70;1.00;6.80;67754.00;;;;5045137;28;20457;-82
2022/01/20 12:21:04;;;;;;;8.27;2.10;;;6.50;1.00;6.60;67720.00;;;;5030634;28;20452;-83
2022/01/20 12:23:42;;;;;;;5.57;1.33;;;6.30;1.00;6.40;67676.00;;;;5026276;28;20484;-82
2022/01/20 12:26:11;;;;;;;5.23;1.50;;;6.10;1.00;6.10;67606.00;;;;5026925;28;20462;-82
2022/01/20 12:28:40;;;;;;;6.50;1.73;;;5.80;1.00;217.30;159290.00;;;;5028895;28;20457;-82
2022/01/20 12:31:12;;;;;;;3.93;2.10;;;5.70;1.00;5.80;101375.00;;;;5046791;28;20469;-83
2022/01/20 12:33:46;;;;;;;6.33;2.07;;;5.50;1.00;5.00;101374.00;;;;5017017;28;20494;-82
2022/01/20 12:36:17;;;;;;;6.63;2.17;;;5.00;1.00;4.30;101312.00;;;;5025854;28;20487;-81